createdAt,value
2023-12-24T00:00:46.714Z,17.50
2023-12-24T00:03:34.990Z,17.00
2023-12-24T00:06:03.503Z,15.33
2023-12-24T00:08:34.019Z,13.00
2023-12-24T00:11:03.335Z,20.50
2023-12-24T00:13:33.236Z,15.00
2023-12-24T00:16:01.768Z,14.50
2023-12-24T00:18:30.164Z,16.25
2023-12-24T00:20:58.435Z,17.33
2023-12-24T00:23:26.640Z,16.00
2023-12-24T00:25:54.683Z,21.00
2023-12-24T00:28:22.689Z,11.50
2023-12-24T00:30:50.732Z,10.50
2023-12-24T00:33:18.954Z,15.50
2023-12-24T00:35:50.471Z,13.67
2023-12-24T00:38:18.856Z,14.00
2023-12-24T00:40:47.134Z,16.00
2023-12-24T00:43:15.154Z,18.00
2023-12-24T00:45:46.988Z,12.00
2023-12-24T00:48:15.190Z,11.50
2023-12-24T00:50:43.517Z,8.25
2023-12-24T00:53:13.592Z,9.50
2023-12-24T00:55:43.097Z,12.00
2023-12-24T00:58:11.400Z,12.25
2023-12-24T01:00:39.763Z,16.50
2023-12-24T01:03:07.861Z,12.25
2023-12-24T01:05:37.460Z,13.00
2023-12-24T01:08:05.988Z,11.00
2023-12-24T01:10:34.099Z,12.50
2023-12-24T01:13:02.195Z,9.00
2023-12-24T01:15:30.278Z,7.00
2023-12-24T01:18:00.075Z,11.00
2023-12-24T01:20:28.429Z,9.67
2023-12-24T01:22:58.124Z,7.00
2023-12-24T01:25:26.122Z,15.00
2023-12-24T01:27:54.831Z,13.25
2023-12-24T01:30:22.863Z,6.25
2023-12-24T01:32:51.361Z,6.50
2023-12-24T01:35:19.985Z,6.00
2023-12-24T01:37:48.025Z,9.50
2023-12-24T01:40:16.113Z,9.00
2023-12-24T01:42:46.753Z,9.75
2023-12-24T01:45:15.108Z,8.67
2023-12-24T01:47:50.788Z,5.00
2023-12-24T01:50:22.790Z,5.25
2023-12-24T01:52:51.339Z,5.75
2023-12-24T01:55:21.446Z,5.25
2023-12-24T01:57:50.648Z,7.00
2023-12-24T02:00:20.897Z,3.00
2023-12-24T02:02:52.678Z,3.00
2023-12-24T02:05:21.268Z,6.00
2023-12-24T02:07:50.041Z,3.00
2023-12-24T02:10:19.817Z,2.00
2023-12-24T02:12:48.246Z,2.00
2023-12-24T02:15:16.723Z,2.50
2023-12-24T02:17:45.811Z,2.00
2023-12-24T02:20:13.980Z,2.00
2023-12-24T02:22:42.053Z,5.00
2023-12-24T02:25:10.822Z,4.00
2023-12-24T02:27:48.425Z,2.25
2023-12-24T02:30:33.389Z,3.50
2023-12-24T02:33:04.604Z,5.00
2023-12-24T02:35:36.083Z,3.00
2023-12-24T02:38:04.977Z,2.25
2023-12-24T02:40:33.079Z,6.00
2023-12-24T02:43:02.656Z,3.00
2023-12-24T02:45:30.756Z,2.00
2023-12-24T02:47:59.921Z,2.00
2023-12-24T02:50:28.184Z,1.50
2023-12-24T02:52:56.320Z,2.25
2023-12-24T02:55:25.063Z,5.00
2023-12-24T02:57:53.096Z,2.00
2023-12-24T03:00:21.205Z,2.00
2023-12-24T03:02:49.712Z,2.67
2023-12-24T03:05:18.037Z,2.00
2023-12-24T03:07:46.262Z,1.00
2023-12-24T03:10:14.361Z,2.50
2023-12-24T03:12:42.639Z,2.75
2023-12-24T03:15:13.117Z,3.00
2023-12-24T03:17:41.313Z,4.50
2023-12-24T03:20:10.862Z,3.00
2023-12-24T03:22:39.180Z,1.75
2023-12-24T03:25:07.651Z,1.00
2023-12-24T03:27:35.837Z,1.00
2023-12-24T03:30:04.294Z,1.00
2023-12-24T03:32:32.569Z,0.00
2023-12-24T03:35:01.269Z,1.00
2023-12-24T03:37:29.375Z,1.00
2023-12-24T03:39:58.775Z,1.00
2023-12-24T03:42:26.903Z,0.00
2023-12-24T03:44:54.921Z,1.00
2023-12-24T03:47:23.079Z,2.00
2023-12-24T03:49:51.202Z,2.00
2023-12-24T03:52:19.267Z,2.00
2023-12-24T03:54:47.445Z,1.00
2023-12-24T03:57:15.485Z,0.00
2023-12-24T03:59:43.646Z,0.00
2023-12-24T04:02:11.934Z,1.00
2023-12-24T04:04:46.108Z,2.00
2023-12-24T04:07:17.801Z,0.00
2023-12-24T04:09:46.136Z,1.00
2023-12-24T04:12:14.235Z,1.00
2023-12-24T04:14:42.755Z,1.00
2023-12-24T04:17:11.068Z,1.50
2023-12-24T04:19:39.176Z,1.00
2023-12-24T04:22:07.300Z,0.00
2023-12-24T04:24:35.362Z,1.00
2023-12-24T04:27:03.646Z,1.00
2023-12-24T04:29:31.818Z,1.50
2023-12-24T04:31:59.969Z,2.00
2023-12-24T04:34:28.528Z,1.00
2023-12-24T04:36:56.692Z,1.00
2023-12-24T04:39:26.010Z,2.00
2023-12-24T04:41:54.123Z,1.00
2023-12-24T04:44:22.475Z,1.00
2023-12-24T04:46:51.405Z,2.33
2023-12-24T04:49:19.575Z,2.00
2023-12-24T04:51:47.813Z,4.50
2023-12-24T04:54:15.837Z,4.00
2023-12-24T04:56:44.011Z,4.33
2023-12-24T04:59:12.674Z,4.00
2023-12-24T05:01:41.175Z,3.00
2023-12-24T05:04:09.453Z,6.00
2023-12-24T05:06:37.735Z,3.00
2023-12-24T05:09:05.840Z,5.00
2023-12-24T05:11:34.645Z,4.50
2023-12-24T05:14:03.383Z,4.00
2023-12-24T05:16:31.433Z,2.25
2023-12-24T05:19:00.037Z,5.00
2023-12-24T05:21:30.801Z,2.50
2023-12-24T05:23:59.523Z,5.00
2023-12-24T05:26:28.027Z,5.50
2023-12-24T05:28:56.097Z,5.00
2023-12-24T05:31:24.147Z,4.75
2023-12-24T05:33:52.138Z,4.50
2023-12-24T05:36:20.130Z,3.00
2023-12-24T05:38:48.166Z,3.50
2023-12-24T05:41:17.630Z,7.67
2023-12-24T05:43:45.641Z,4.50
2023-12-24T05:46:15.001Z,6.75
2023-12-24T05:48:44.205Z,5.33
2023-12-24T05:51:12.296Z,2.75
2023-12-24T05:53:40.490Z,6.00
2023-12-24T05:56:09.698Z,2.00
2023-12-24T05:58:37.860Z,4.33
2023-12-24T06:01:06.395Z,5.25
2023-12-24T06:03:34.469Z,5.00
2023-12-24T06:06:02.887Z,5.00
2023-12-24T06:08:31.107Z,6.00
2023-12-24T06:10:59.257Z,5.50
2023-12-24T06:13:27.536Z,7.00
2023-12-24T06:15:55.628Z,5.25
2023-12-24T06:18:23.785Z,4.00
2023-12-24T06:20:52.214Z,3.00
2023-12-24T06:23:20.399Z,3.00
2023-12-24T06:25:48.445Z,2.00
2023-12-24T06:28:16.603Z,3.00
2023-12-24T06:30:44.661Z,2.75
2023-12-24T06:33:12.819Z,5.00
2023-12-24T06:35:40.890Z,2.00
2023-12-24T06:38:09.059Z,5.25
2023-12-24T06:40:37.101Z,6.00
2023-12-24T06:43:05.527Z,6.00
2023-12-24T06:45:33.630Z,7.00
2023-12-24T06:48:04.556Z,7.75
2023-12-24T06:50:32.762Z,7.75
2023-12-24T06:53:02.645Z,3.00
2023-12-24T06:55:30.678Z,6.00
2023-12-24T06:57:59.027Z,7.50
2023-12-24T07:00:27.026Z,3.00
2023-12-24T07:02:55.324Z,4.75
2023-12-24T07:05:23.623Z,6.00
2023-12-24T07:07:51.864Z,2.33
2023-12-24T07:10:20.611Z,5.75
2023-12-24T07:12:48.727Z,6.00
2023-12-24T07:15:16.735Z,4.75
2023-12-24T07:17:44.872Z,11.50
2023-12-24T07:20:13.419Z,8.25
2023-12-24T07:22:41.723Z,7.00
2023-12-24T07:25:10.835Z,6.33
2023-12-24T07:27:39.707Z,3.50
2023-12-24T07:30:09.229Z,7.25
2023-12-24T07:32:37.475Z,4.00
2023-12-24T07:35:05.809Z,4.00
2023-12-24T07:37:33.890Z,6.00
2023-12-24T07:40:02.248Z,5.00
2023-12-24T07:42:30.518Z,5.25
2023-12-24T07:44:58.637Z,4.00
2023-12-24T07:47:26.797Z,4.25
2023-12-24T07:49:54.912Z,3.00
2023-12-24T07:52:22.981Z,5.00
2023-12-24T07:54:50.919Z,8.50
2023-12-24T07:57:19.097Z,4.25
2023-12-24T07:59:47.077Z,6.50
2023-12-24T08:02:15.155Z,4.00
2023-12-24T08:04:45.398Z,3.00
2023-12-24T08:07:13.538Z,3.00
2023-12-24T08:09:41.789Z,4.00
2023-12-24T08:12:09.833Z,3.67
2023-12-24T08:14:37.993Z,4.00
2023-12-24T08:17:06.188Z,3.50
2023-12-24T08:19:34.241Z,2.00
2023-12-24T08:22:02.527Z,5.00
2023-12-24T08:24:30.512Z,3.00
2023-12-24T08:26:58.567Z,2.00
2023-12-24T08:29:26.554Z,5.25
2023-12-24T08:31:56.646Z,3.00
2023-12-24T08:34:26.114Z,2.00
2023-12-24T08:36:54.207Z,2.00
2023-12-24T08:39:22.351Z,3.75
2023-12-24T08:41:50.562Z,3.00
2023-12-24T08:44:18.868Z,2.25
2023-12-24T08:46:49.780Z,3.25
2023-12-24T08:49:17.866Z,2.25
2023-12-24T08:51:46.129Z,3.00
2023-12-24T08:54:14.198Z,3.00
2023-12-24T08:56:42.475Z,3.00
2023-12-24T08:59:10.745Z,5.00
2023-12-24T09:01:42.509Z,6.75
2023-12-24T09:04:10.701Z,4.00
2023-12-24T09:06:39.318Z,5.00
2023-12-24T09:09:10.102Z,7.00
2023-12-24T09:11:38.237Z,3.25
2023-12-24T09:14:06.440Z,3.00
2023-12-24T09:16:34.608Z,2.25
2023-12-24T09:19:02.957Z,3.67
2023-12-24T09:21:31.282Z,3.00
2023-12-24T09:24:02.066Z,4.00
2023-12-24T09:26:30.232Z,7.00
2023-12-24T09:28:58.269Z,4.00
2023-12-24T09:31:26.399Z,5.25
2023-12-24T09:33:54.664Z,10.00
2023-12-24T09:36:22.703Z,6.75
2023-12-24T09:38:50.966Z,5.25
2023-12-24T09:41:20.708Z,7.33
2023-12-24T09:43:48.889Z,7.50
2023-12-24T09:46:17.162Z,10.00
2023-12-24T09:48:45.325Z,6.50
2023-12-24T09:51:13.355Z,7.00
2023-12-24T09:53:45.906Z,7.75
2023-12-24T09:56:14.001Z,6.75
2023-12-24T09:58:43.119Z,2.50
2023-12-24T10:01:11.799Z,3.00
2023-12-24T10:03:39.984Z,8.00
2023-12-24T10:06:09.935Z,7.00
2023-12-24T10:08:40.106Z,7.33
2023-12-24T10:11:37.408Z,7.25
2023-12-24T10:14:05.867Z,4.25
2023-12-24T10:16:46.555Z,7.75
2023-12-24T10:19:24.882Z,13.25
2023-12-24T10:22:09.474Z,6.00
2023-12-24T10:24:42.977Z,4.25
2023-12-24T10:27:16.502Z,2.75
2023-12-24T10:29:44.797Z,5.00
2023-12-24T10:32:12.936Z,5.00
2023-12-24T10:34:41.524Z,4.00
2023-12-24T10:37:30.676Z,9.25
2023-12-24T10:40:25.014Z,3.00
2023-12-24T10:42:53.293Z,15.75
2023-12-24T10:45:21.458Z,5.00
2023-12-24T10:47:49.931Z,3.00
2023-12-24T10:50:18.156Z,3.67
2023-12-24T10:52:46.198Z,4.00
2023-12-24T10:55:15.416Z,4.00
2023-12-24T10:58:08.620Z,2.75
2023-12-24T11:00:36.693Z,1.25
2023-12-24T11:03:04.746Z,5.00
2023-12-24T11:05:42.257Z,3.33
2023-12-24T11:08:31.685Z,4.33
2023-12-24T11:11:05.762Z,3.75
2023-12-24T11:13:34.185Z,1.00
2023-12-24T11:16:06.140Z,5.00
2023-12-24T11:18:49.347Z,3.00
2023-12-24T11:21:20.824Z,5.25
2023-12-24T11:24:15.382Z,4.25
2023-12-24T11:26:52.358Z,2.75
2023-12-24T11:29:39.556Z,3.25
2023-12-24T11:32:26.129Z,8.00
2023-12-24T11:34:58.685Z,5.00
2023-12-24T11:37:31.757Z,2.00
2023-12-24T11:40:19.726Z,4.33
2023-12-24T11:42:50.463Z,0.00
2023-12-24T11:45:22.848Z,5.25
2023-12-24T11:47:52.422Z,3.00
2023-12-24T11:50:21.981Z,1.00
2023-12-24T11:52:51.837Z,2.00
2023-12-24T11:55:21.601Z,3.00
2023-12-24T11:57:51.117Z,3.00
2023-12-24T12:00:29.764Z,4.00
2023-12-24T12:03:01.325Z,6.75
2023-12-24T12:05:31.575Z,3.25
2023-12-24T12:08:00.079Z,2.00
2023-12-24T12:10:29.264Z,2.25
2023-12-24T12:12:58.139Z,2.00
2023-12-24T12:15:28.351Z,1.50
2023-12-24T12:17:56.812Z,3.00
2023-12-24T12:20:27.109Z,2.00
2023-12-24T12:22:55.557Z,3.00
2023-12-24T12:25:23.997Z,6.00
2023-12-24T12:27:52.054Z,3.00
2023-12-24T12:30:23.527Z,5.00
2023-12-24T12:32:52.366Z,4.00
2023-12-24T12:35:20.963Z,7.00
2023-12-24T12:37:49.273Z,6.25
2023-12-24T12:40:17.325Z,2.25
2023-12-24T12:42:45.727Z,5.00
2023-12-24T12:45:14.097Z,3.50
2023-12-24T12:47:42.728Z,3.25
2023-12-24T12:50:11.632Z,4.75
2023-12-24T12:52:39.855Z,4.33
2023-12-24T12:55:09.712Z,4.75
2023-12-24T12:57:38.236Z,5.50
2023-12-24T13:00:10.645Z,3.00
2023-12-24T13:02:40.325Z,5.00
2023-12-24T13:05:30.799Z,4.75
2023-12-24T13:08:01.163Z,7.50
2023-12-24T13:10:34.255Z,6.25
2023-12-24T13:13:25.571Z,3.00
2023-12-24T13:16:10.190Z,3.00
2023-12-24T13:18:38.964Z,2.75
2023-12-24T13:21:12.220Z,5.00
2023-12-24T13:23:40.558Z,1.00
2023-12-24T13:26:08.696Z,2.00
2023-12-24T13:28:38.689Z,2.00
2023-12-24T13:31:08.812Z,5.25
2023-12-24T13:33:36.904Z,3.00
2023-12-24T13:36:05.989Z,2.00
2023-12-24T13:38:34.166Z,6.33
2023-12-24T13:41:02.244Z,3.00
2023-12-24T13:43:30.299Z,1.33
2023-12-24T13:45:59.026Z,3.00
2023-12-24T13:48:28.048Z,3.00
2023-12-24T13:50:56.484Z,4.00
2023-12-24T13:53:31.684Z,2.75
2023-12-24T13:56:02.755Z,2.00
2023-12-24T13:58:34.763Z,3.25
2023-12-24T14:01:03.701Z,2.00
2023-12-24T14:03:32.045Z,2.00
2023-12-24T14:06:01.441Z,4.00
2023-12-24T14:08:31.984Z,3.75
2023-12-24T14:11:00.533Z,4.00
2023-12-24T14:13:28.545Z,5.33
2023-12-24T14:15:58.357Z,2.33
2023-12-24T14:18:26.652Z,2.00
2023-12-24T14:20:54.836Z,2.50
2023-12-24T14:23:22.906Z,3.25
2023-12-24T14:25:51.063Z,4.00
2023-12-24T14:28:19.234Z,5.00
2023-12-24T14:30:51.548Z,4.00
2023-12-24T14:33:20.359Z,4.00
2023-12-24T14:35:48.692Z,4.00
2023-12-24T14:38:17.061Z,7.75
2023-12-24T14:40:46.793Z,4.00
2023-12-24T14:43:15.143Z,4.00
2023-12-24T14:45:43.176Z,5.00
2023-12-24T14:48:11.628Z,4.00
2023-12-24T14:50:40.013Z,8.00
2023-12-24T14:53:09.109Z,8.50
2023-12-24T14:55:37.443Z,6.00
2023-12-24T14:58:05.800Z,6.00
2023-12-24T15:00:34.113Z,6.00
2023-12-24T15:03:02.340Z,4.00
2023-12-24T15:05:30.797Z,8.00
2023-12-24T15:07:59.458Z,8.00
2023-12-24T15:10:27.565Z,5.33
2023-12-24T15:12:55.529Z,7.75
2023-12-24T15:15:23.621Z,5.00
2023-12-24T15:17:52.094Z,4.00
2023-12-24T15:20:20.408Z,3.25
2023-12-24T15:22:48.769Z,9.00
2023-12-24T15:25:16.796Z,6.25
2023-12-24T15:27:44.957Z,8.50
2023-12-24T15:30:13.156Z,12.33
2023-12-24T15:32:41.555Z,12.50
2023-12-24T15:35:09.914Z,11.33
2023-12-24T15:37:37.958Z,9.25
2023-12-24T15:40:08.973Z,9.25
2023-12-24T15:42:36.981Z,9.00
2023-12-24T15:45:05.994Z,12.50
2023-12-24T15:47:34.180Z,9.25
2023-12-24T15:50:02.778Z,9.75
2023-12-24T15:52:31.070Z,11.50
2023-12-24T15:55:01.515Z,9.25
2023-12-24T15:57:30.413Z,18.67
2023-12-24T15:59:58.998Z,18.00
2023-12-24T16:02:29.109Z,12.00
2023-12-24T16:04:57.438Z,17.00
2023-12-24T16:07:25.700Z,23.00
2023-12-24T16:09:53.703Z,16.67
2023-12-24T16:12:22.140Z,23.00
2023-12-24T16:14:50.331Z,16.75
2023-12-24T16:17:18.491Z,16.00
2023-12-24T16:19:46.530Z,15.00
2023-12-24T16:22:15.225Z,17.00
2023-12-24T16:24:43.595Z,12.00
2023-12-24T16:27:11.700Z,15.50
2023-12-24T16:29:39.881Z,19.50
2023-12-24T16:32:08.172Z,20.50
2023-12-24T16:34:36.271Z,15.33
2023-12-24T16:37:04.324Z,17.00
2023-12-24T16:39:33.461Z,35.50
2023-12-24T16:42:01.484Z,26.00
2023-12-24T16:44:29.581Z,28.00
2023-12-24T16:46:57.961Z,29.00
2023-12-24T16:49:26.259Z,18.00
2023-12-24T16:51:55.015Z,22.33
2023-12-24T16:54:23.055Z,22.00
2023-12-24T16:56:51.323Z,20.50
2023-12-24T16:59:20.420Z,13.00
2023-12-24T17:01:49.160Z,23.75
2023-12-24T17:04:17.308Z,14.50
2023-12-24T17:06:45.678Z,25.75
2023-12-24T17:09:15.701Z,20.75
2023-12-24T17:11:43.854Z,20.00
2023-12-24T17:14:12.227Z,22.33
2023-12-24T17:16:42.539Z,19.67
2023-12-24T17:19:10.851Z,16.50
2023-12-24T17:21:39.132Z,15.00
2023-12-24T17:24:08.351Z,19.00
2023-12-24T17:26:40.335Z,17.00
2023-12-24T17:29:08.587Z,14.75
2023-12-24T17:31:36.673Z,9.25
2023-12-24T17:34:04.873Z,15.75
2023-12-24T17:36:33.129Z,10.33
2023-12-24T17:39:01.356Z,10.00
2023-12-24T17:41:29.564Z,9.75
2023-12-24T17:43:58.215Z,13.25
2023-12-24T17:46:31.429Z,13.67
2023-12-24T17:48:59.756Z,14.00
2023-12-24T17:51:28.097Z,17.33
2023-12-24T17:53:57.031Z,15.25
2023-12-24T17:56:25.209Z,14.00
2023-12-24T17:58:53.367Z,17.25
2023-12-24T18:01:21.422Z,14.67
2023-12-24T18:03:49.524Z,18.00
2023-12-24T18:06:17.916Z,11.00
2023-12-24T18:08:46.020Z,8.75
2023-12-24T18:11:16.818Z,7.00
2023-12-24T18:13:44.887Z,10.00
2023-12-24T18:16:12.932Z,9.00
2023-12-24T18:18:41.158Z,13.00
2023-12-24T18:21:09.280Z,14.00
2023-12-24T18:23:37.491Z,15.50
2023-12-24T18:26:06.668Z,15.00
2023-12-24T18:28:34.779Z,12.50
2023-12-24T18:31:02.959Z,15.00
2023-12-24T18:33:31.204Z,15.00
2023-12-24T18:35:59.442Z,13.75
2023-12-24T18:38:28.567Z,10.00
2023-12-24T18:40:56.964Z,9.50
2023-12-24T18:43:25.035Z,10.75
2023-12-24T18:45:53.190Z,10.00
2023-12-24T18:48:23.309Z,11.75
2023-12-24T18:50:51.756Z,9.75
2023-12-24T18:53:20.080Z,8.00
2023-12-24T18:55:48.545Z,11.75
2023-12-24T18:58:16.603Z,10.75
2023-12-24T19:00:44.709Z,14.00
2023-12-24T19:03:13.006Z,14.00
2023-12-24T19:05:41.607Z,17.75
2023-12-24T19:08:09.803Z,14.00
2023-12-24T19:10:37.748Z,10.00
2023-12-24T19:13:05.780Z,9.75
2023-12-24T19:15:33.774Z,9.75
2023-12-24T19:18:02.934Z,8.00
2023-12-24T19:20:32.062Z,8.50
2023-12-24T19:23:00.193Z,8.75
2023-12-24T19:25:28.393Z,9.00
2023-12-24T19:27:56.398Z,10.25
2023-12-24T19:30:24.405Z,8.00
2023-12-24T19:32:52.736Z,9.00
2023-12-24T19:35:21.060Z,8.50
2023-12-24T19:37:49.262Z,8.00
2023-12-24T19:40:17.385Z,7.00
2023-12-24T19:42:45.612Z,8.00
2023-12-24T19:45:13.808Z,7.75
2023-12-24T19:47:42.136Z,10.33
2023-12-24T19:50:11.935Z,8.00
2023-12-24T19:52:40.637Z,12.00
2023-12-24T19:55:09.351Z,8.00
2023-12-24T19:57:37.578Z,11.25
2023-12-24T20:00:06.997Z,10.50
2023-12-24T20:02:44.113Z,12.00
2023-12-24T20:05:12.976Z,10.25
2023-12-24T20:07:41.153Z,10.67
2023-12-24T20:10:10.219Z,9.75
2023-12-24T20:12:38.733Z,8.33
2023-12-24T20:15:07.157Z,12.50
2023-12-24T20:17:35.528Z,10.50
2023-12-24T20:20:04.000Z,12.50
2023-12-24T20:22:32.112Z,8.25
2023-12-24T20:25:00.936Z,14.00
2023-12-24T20:27:29.131Z,10.75
2023-12-24T20:29:57.327Z,13.00
2023-12-24T20:32:26.722Z,9.00
2023-12-24T20:34:55.120Z,12.00
2023-12-24T20:37:25.256Z,9.00
2023-12-24T20:39:53.579Z,12.75
2023-12-24T20:42:21.638Z,10.00
2023-12-24T20:44:49.766Z,12.00
2023-12-24T20:47:17.949Z,8.25
2023-12-24T20:49:46.197Z,13.33
2023-12-24T20:52:14.948Z,9.25
2023-12-24T20:54:46.013Z,9.00
2023-12-24T20:57:14.642Z,8.75
2023-12-24T20:59:42.814Z,12.00
2023-12-24T21:02:10.998Z,12.00
2023-12-24T21:04:43.985Z,12.75
2023-12-24T21:07:12.213Z,12.75
2023-12-24T21:09:42.139Z,12.00
2023-12-24T21:12:10.256Z,13.00
2023-12-24T21:14:38.379Z,13.75
2023-12-24T21:17:06.419Z,18.33
2023-12-24T21:19:34.796Z,48.75
2023-12-24T21:22:03.104Z,37.00
2023-12-24T21:24:31.208Z,18.00
2023-12-24T21:26:59.305Z,14.50
2023-12-24T21:29:27.467Z,12.50
2023-12-24T21:31:56.282Z,10.25
2023-12-24T21:34:24.306Z,16.75
2023-12-24T21:36:57.390Z,20.75
2023-12-24T21:39:25.627Z,13.25
2023-12-24T21:41:54.092Z,15.00
2023-12-24T21:44:22.704Z,23.00
2023-12-24T21:46:50.831Z,23.00
2023-12-24T21:49:19.077Z,34.25
2023-12-24T21:51:47.768Z,30.67
2023-12-24T21:54:16.311Z,30.00
2023-12-24T21:56:44.630Z,25.50
2023-12-24T21:59:13.374Z,31.50
2023-12-24T22:01:44.512Z,31.00
2023-12-24T22:04:13.265Z,28.75
2023-12-24T22:06:42.287Z,31.75
2023-12-24T22:09:10.534Z,36.67
2023-12-24T22:11:42.338Z,29.75
2023-12-24T22:14:10.728Z,30.75
2023-12-24T22:16:40.552Z,31.00
2023-12-24T22:19:08.974Z,41.75
2023-12-24T22:21:49.319Z,36.50
2023-12-24T22:24:23.480Z,28.00
2023-12-24T22:26:52.649Z,32.00
2023-12-24T22:29:20.953Z,24.00
2023-12-24T22:31:49.845Z,20.50
2023-12-24T22:34:18.528Z,18.50
2023-12-24T22:36:46.913Z,43.67
2023-12-24T22:39:22.265Z,37.00
2023-12-24T22:41:50.700Z,42.00
2023-12-24T22:44:19.507Z,37.25
2023-12-24T22:46:47.616Z,28.50
2023-12-24T22:49:15.930Z,31.25
2023-12-24T22:51:44.084Z,43.75
2023-12-24T22:54:12.359Z,26.00
2023-12-24T22:56:40.369Z,34.00
2023-12-24T22:59:08.442Z,34.00
2023-12-24T23:01:36.359Z,29.75
2023-12-24T23:04:04.858Z,27.25
2023-12-24T23:06:32.951Z,50.50
2023-12-24T23:09:01.221Z,53.00
2023-12-24T23:11:29.487Z,47.25
2023-12-24T23:13:57.480Z,59.00
2023-12-24T23:16:25.507Z,64.50
2023-12-24T23:18:53.607Z,62.33
2023-12-24T23:21:21.930Z,60.00
2023-12-24T23:23:50.092Z,55.25
2023-12-24T23:26:18.201Z,63.25
2023-12-24T23:28:46.198Z,72.25
2023-12-24T23:31:14.339Z,55.00
2023-12-24T23:33:42.466Z,59.00
2023-12-24T23:36:12.912Z,56.75
2023-12-24T23:38:42.412Z,53.00
2023-12-24T23:41:10.984Z,49.33
2023-12-24T23:43:40.861Z,52.50
2023-12-24T23:46:12.784Z,48.00
2023-12-24T23:48:41.356Z,46.33
2023-12-24T23:51:09.474Z,46.25
2023-12-24T23:53:37.664Z,47.00
2023-12-24T23:56:13.100Z,47.75
2023-12-24T23:58:41.170Z,41.00
